Gheen, Minnesota
Current Conditions -  °F | °C
As of 8:33 AM on Thursday 18 Dec 2014 (Local Time) from KORB Reporting Station
Light Snow Light Snow  
Wind Chill: 14°   Ceiling: 1100
Heat Index: 14°   Visibility: 3mi
Dew Point: 10°   Wind: 0mph
Humidity: 86%   Direction: NA
Pressure: 30.26"   Gusts: NA
Location:  48.1455°N, 92.8504°W
Report Text: KORB 181433Z AUTO 00000KT 3SM -SN OVC011 M10/M12 A3026 RMK AO2
Loading
Personal Weather Stations






























Interactive Weather Map New forecast layout! Learn more

10-Day Weather Forecast

Advertisements
Track Severe Weather on mobile